Time;durP1;ratioP1;P1;durP2;ratioP2;P2;SDS_P1;SDS_P2;PMS_P1;PMS_P2;Temp;Humidity;BMP_temperature;BMP_pressure;BME280_temperature;BME280_humidity;BME280_pressure;Samples;Min_cycle;Max_cycle;Signal;HPM_P1;HPM_P2
2023/04/22 00:00:05;;;;;;;4.80;3.28;;;3.60;99.90;;;;;;20739857;28;20037;-53
2023/04/22 00:10:10;;;;;;;7.55;3.55;;;3.30;99.90;;;;;;20739215;28;20042;-52
2023/04/22 00:20:12;;;;;;;7.38;4.75;;;3.20;99.90;;;;;;20737203;28;20042;-51
2023/04/22 00:30:14;;;;;;;9.68;4.30;;;3.40;99.90;;;;;;20736953;28;20395;-52
2023/04/22 00:40:16;;;;;;;5.22;3.38;;;3.30;99.90;;;;;;20737466;28;20038;-49
2023/04/22 00:50:18;;;;;;;5.97;3.67;;;3.40;99.90;;;;;;20737514;28;20406;-50
2023/04/22 01:00:25;;;;;;;8.02;3.83;;;3.30;99.90;;;;;;20737050;28;20529;-50
2023/04/22 01:10:27;;;;;;;6.72;3.78;;;3.30;99.90;;;;;;20739765;28;20080;-52
2023/04/22 01:20:29;;;;;;;5.47;3.30;;;3.30;99.90;;;;;;20751451;28;20041;-50
2023/04/22 01:30:31;;;;;;;6.28;3.55;;;3.30;99.90;;;;;;20750832;28;20053;-49
2023/04/22 01:40:34;;;;;;;6.13;3.90;;;3.40;99.90;;;;;;20749243;28;20108;-51
2023/04/22 01:50:36;;;;;;;5.70;3.50;;;3.50;99.90;;;;;;20749277;28;20037;-51
2023/04/22 02:00:37;;;;;;;6.15;3.90;;;3.70;99.90;;;;;;20748333;28;20030;-50
2023/04/22 02:10:39;;;;;;;6.90;4.25;;;3.80;99.90;;;;;;20746708;28;20034;-50
2023/04/22 02:20:41;;;;;;;7.15;4.38;;;3.80;99.90;;;;;;20728794;28;20100;-52
2023/04/22 02:30:44;;;;;;;6.72;4.50;;;3.80;99.90;;;;;;20746066;28;20096;-59
2023/04/22 02:40:46;;;;;;;9.55;5.25;;;3.80;99.90;;;;;;20745576;28;20088;-51
2023/04/22 02:50:48;;;;;;;8.43;5.15;;;3.70;99.90;;;;;;20744421;28;20042;-51
2023/04/22 03:00:49;;;;;;;8.55;5.38;;;3.70;99.90;;;;;;20742835;28;20088;-52
2023/04/22 03:10:51;;;;;;;9.45;5.43;;;3.70;99.90;;;;;;20742024;28;20026;-48
2023/04/22 03:20:53;;;;;;;7.95;5.32;;;3.70;99.90;;;;;;20742161;28;20096;-49
2023/04/22 03:30:54;;;;;;;10.70;5.93;;;3.70;99.90;;;;;;20740149;28;20048;-49
2023/04/22 03:40:56;;;;;;;10.10;5.78;;;3.90;99.90;;;;;;20739226;28;20553;-51
2023/04/22 03:51:09;;;;;;;10.77;7.03;;;3.90;99.90;;;;;;20738911;28;20033;-51
2023/04/22 04:01:13;;;;;;;11.48;7.05;;;3.90;99.90;;;;;;20739339;28;20088;-51
2023/04/22 04:11:17;;;;;;;12.98;8.07;;;3.90;99.90;;;;;;20737932;28;20560;-60
2023/04/22 04:21:20;;;;;;;14.23;7.90;;;3.90;99.90;;;;;;20737397;28;20085;-51
2023/04/22 04:31:25;;;;;;;14.05;7.20;;;4.00;99.90;;;;;;20737037;28;20046;-60
2023/04/22 04:41:30;;;;;;;10.70;7.10;;;4.10;99.90;;;;;;20737047;28;20096;-50
2023/04/22 04:51:32;;;;;;;9.43;5.70;;;4.20;99.90;;;;;;20751164;28;20103;-48
2023/04/22 05:01:35;;;;;;;9.35;5.63;;;4.30;99.90;;;;;;20752944;28;20286;-49
2023/04/22 05:11:42;;;;;;;11.38;5.82;;;4.50;99.90;;;;;;20751291;28;20092;-51
2023/04/22 05:21:49;;;;;;;10.70;6.32;;;4.70;99.90;;;;;;20751555;28;20107;-51
2023/04/22 05:31:52;;;;;;;9.15;5.55;;;5.10;99.90;;;;;;20751127;28;20065;-52
2023/04/22 05:41:54;;;;;;;10.52;6.57;;;5.70;99.90;;;;;;20749118;28;20034;-51
2023/04/22 05:51:56;;;;;;;8.73;5.53;;;6.10;99.90;;;;;;20748050;28;20029;-50
2023/04/22 06:02:03;;;;;;;6.57;4.50;;;6.70;99.90;;;;;;20746513;28;20133;-51
2023/04/22 06:12:06;;;;;;;6.13;4.43;;;7.40;99.90;;;;;;20745871;28;20058;-51
2023/04/22 06:22:09;;;;;;;5.43;3.72;;;7.80;99.90;;;;;;20746385;28;20041;-49
2023/04/22 06:32:10;;;;;;;5.88;4.32;;;8.00;99.90;;;;;;20744297;28;20061;-51
2023/04/22 06:42:12;;;;;;;6.03;4.43;;;7.90;99.90;;;;;;20744291;28;20369;-52
2023/04/22 06:52:24;;;;;;;6.35;3.50;;;9.40;99.90;;;;;;20744204;28;20038;-53
2023/04/22 07:02:27;;;;;;;4.35;3.30;;;11.60;99.90;;;;;;20742447;28;20049;-54
2023/04/22 07:12:30;;;;;;;4.15;3.42;;;12.90;99.90;;;;;;20741508;28;20042;-53
2023/04/22 07:22:31;;;;;;;4.68;3.50;;;13.60;99.90;;;;;;20741749;28;20096;-63
2023/04/22 07:32:33;;;;;;;4.20;3.60;;;13.90;99.90;;;;;;20738535;28;20069;-63
2023/04/22 07:42:37;;;;;;;4.60;3.85;;;14.10;99.90;;;;;;20740720;28;20490;-62
2023/04/22 07:52:38;;;;;;;5.93;4.03;;;14.20;99.90;;;;;;20736348;28;20034;-63
2023/04/22 08:02:40;;;;;;;4.63;3.75;;;14.30;99.90;;;;;;20737993;28;20045;-63
2023/04/22 08:12:41;;;;;;;5.45;3.75;;;14.30;99.90;;;;;;20739490;28;20030;-53
2023/04/22 08:22:44;;;;;;;4.18;3.78;;;14.80;99.90;;;;;;20738290;28;20644;-50
2023/04/22 08:32:46;;;;;;;6.68;3.90;;;15.50;99.90;;;;;;20739134;28;20110;-50
2023/04/22 08:42:51;;;;;;;4.35;3.92;;;16.20;99.90;;;;;;20737088;28;20049;-50
2023/04/22 08:52:52;;;;;;;4.03;3.63;;;16.70;99.90;;;;;;20738236;28;20030;-61
2023/04/22 09:02:55;;;;;;;4.80;3.85;;;17.20;99.90;;;;;;20735209;28;20037;-52
2023/04/22 09:12:57;;;;;;;4.63;3.65;;;17.00;99.90;;;;;;20737128;28;20036;-62
2023/04/22 09:23:03;;;;;;;6.47;4.05;;;15.70;99.90;;;;;;20736190;28;20030;-62
2023/04/22 09:33:06;;;;;;;4.38;3.75;;;15.80;99.90;;;;;;20740410;28;20041;-62
2023/04/22 09:43:08;;;;;;;4.90;4.25;;;16.60;99.90;;;;;;20752469;28;20085;-62
2023/04/22 09:53:13;;;;;;;4.80;4.30;;;17.20;99.90;;;;;;20749465;28;20081;-63
2023/04/22 10:03:15;;;;;;;7.80;5.00;;;16.20;99.90;;;;;;20748799;28;20026;-63
2023/04/22 10:13:17;;;;;;;5.97;5.35;;;16.50;99.90;;;;;;20747787;28;20162;-51
2023/04/22 10:23:21;;;;;;;6.30;5.20;;;16.00;99.90;;;;;;20746084;28;20034;-61
2023/04/22 10:33:23;;;;;;;7.13;5.25;;;15.40;99.90;;;;;;20746211;28;20487;-62
2023/04/22 10:43:47;;;;;;;6.40;5.18;;;15.50;99.90;;;;;;20744535;28;20250;-63
2023/04/22 10:53:49;;;;;;;7.30;6.00;;;15.90;99.90;;;;;;20665530;28;20035;-62
2023/04/22 11:03:50;;;;;;;7.65;5.90;;;15.40;99.90;;;;;;20743960;28;20036;-62
2023/04/22 11:13:53;;;;;;;6.90;5.95;;;15.50;99.90;;;;;;20742857;28;20033;-62
2023/04/22 11:23:55;;;;;;;6.95;5.35;;;15.60;99.90;;;;;;20742912;28;20060;-62
2023/04/22 11:34:00;;;;;;;6.40;5.75;;;15.80;99.90;;;;;;20741997;28;20034;-62
2023/04/22 11:44:02;;;;;;;8.88;5.78;;;15.30;99.90;;;;;;20740942;28;20030;-52
2023/04/22 11:54:03;;;;;;;8.65;6.65;;;14.60;99.90;;;;;;20739816;28;20048;-62
2023/04/22 12:04:09;;;;;;;8.70;7.30;;;14.30;99.90;;;;;;20737647;28;20109;-62
2023/04/22 12:14:11;;;;;;;11.32;8.25;;;14.20;99.90;;;;;;20738769;28;20476;-62
2023/04/22 12:24:13;;;;;;;12.35;9.75;;;14.20;99.90;;;;;;20738852;28;20044;-62
2023/04/22 12:34:15;;;;;;;12.55;8.18;;;14.10;99.90;;;;;;20738105;28;20096;-62
2023/04/22 12:44:17;;;;;;;12.65;9.80;;;14.30;99.90;;;;;;20737855;28;20026;-52
2023/04/22 12:54:19;;;;;;;14.70;11.00;;;14.80;99.90;;;;;;20737707;28;20076;-52
2023/04/22 13:04:21;;;;;;;15.25;12.30;;;15.40;99.90;;;;;;20737984;28;20028;-53
2023/04/22 13:14:23;;;;;;;12.70;10.90;;;16.40;99.90;;;;;;20751819;28;20380;-65
2023/04/22 13:24:25;;;;;;;14.55;11.52;;;16.80;99.90;;;;;;20752345;28;20396;-65
2023/04/22 13:34:26;;;;;;;13.98;10.63;;;17.30;99.90;;;;;;20749807;28;20345;-65
2023/04/22 13:44:28;;;;;;;15.23;12.00;;;17.80;99.90;;;;;;20749957;28;20037;-54
2023/04/22 13:54:30;;;;;;;15.75;12.32;;;16.90;99.90;;;;;;20750434;28;20092;-63
2023/04/22 14:04:32;;;;;;;15.73;12.98;;;16.00;99.90;;;;;;20745694;28;20088;-56
2023/04/22 14:14:34;;;;;;;16.60;12.20;;;15.30;99.90;;;;;;20747092;28;20046;-64
2023/04/22 14:24:35;;;;;;;15.02;11.32;;;14.80;99.90;;;;;;20746789;28;20038;-67
2023/04/22 14:34:38;;;;;;;12.02;9.85;;;15.20;99.90;;;;;;20746046;28;20037;-51
2023/04/22 14:44:39;;;;;;;12.77;9.75;;;16.30;99.90;;;;;;20745251;28;20103;-66
2023/04/22 14:54:41;;;;;;;15.65;9.55;;;16.90;99.90;;;;;;20744940;28;20030;-67
2023/04/22 15:04:43;;;;;;;12.27;8.88;;;16.60;99.90;;;;;;20744115;28;20210;-68
2023/04/22 15:14:45;;;;;;;10.27;8.48;;;16.20;99.90;;;;;;20742943;28;20042;-53
2023/04/22 15:24:46;;;;;;;12.27;8.25;;;15.70;99.90;;;;;;20742409;28;20037;-63
2023/04/22 15:34:48;;;;;;;11.75;8.23;;;15.00;99.90;;;;;;20740322;28;20105;-65
2023/04/22 15:44:50;;;;;;;12.65;9.07;;;14.80;99.90;;;;;;20740827;28;20030;-56
2023/04/22 15:54:51;;;;;;;13.65;10.00;;;14.80;99.90;;;;;;20740229;28;20025;-57
2023/04/22 16:04:53;;;;;;;10.63;8.18;;;14.30;99.90;;;;;;20736884;28;20113;-64
2023/04/22 16:14:54;;;;;;;11.30;8.52;;;13.40;99.90;;;;;;20738368;28;20042;-65
2023/04/22 16:24:56;;;;;;;11.02;8.05;;;12.60;99.90;;;;;;20738465;28;20100;-63
2023/04/22 16:34:58;;;;;;;9.75;7.03;;;12.00;99.90;;;;;;20735095;28;20442;-64
2023/04/22 16:45:00;;;;;;;9.73;6.18;;;11.90;99.90;;;;;;20746402;28;20034;-64
2023/04/22 16:55:04;;;;;;;9.68;5.43;;;11.70;99.90;;;;;;20753476;28;20088;-63
2023/04/22 17:05:06;;;;;;;8.55;5.65;;;11.20;99.90;;;;;;20752931;28;20507;-63
2023/04/22 17:15:08;;;;;;;8.27;6.05;;;10.80;99.90;;;;;;20751923;28;20088;-62
2023/04/22 17:25:10;;;;;;;9.27;6.93;;;10.40;99.90;;;;;;20751313;28;20471;-62
2023/04/22 17:35:12;;;;;;;9.77;6.95;;;10.00;99.90;;;;;;20750122;28;20042;-62
2023/04/22 17:45:13;;;;;;;10.50;6.40;;;9.50;99.90;;;;;;20738758;28;20099;-56
2023/04/22 17:55:15;;;;;;;8.38;5.63;;;8.90;99.90;;;;;;20748713;28;20037;-55
2023/04/22 18:05:17;;;;;;;7.47;5.28;;;8.40;99.90;;;;;;20746764;28;20037;-56
2023/04/22 18:15:20;;;;;;;8.70;6.00;;;8.00;99.90;;;;;;20748147;28;20369;-54
2023/04/22 18:25:23;;;;;;;10.75;7.05;;;7.50;99.90;;;;;;20746224;28;20042;-55
2023/04/22 18:35:25;;;;;;;12.18;7.75;;;7.00;99.90;;;;;;20745095;28;20344;-58
2023/04/22 18:45:27;;;;;;;13.00;7.93;;;6.80;99.90;;;;;;20740576;28;20022;-60
2023/04/22 18:55:29;;;;;;;12.27;8.05;;;6.70;99.90;;;;;;20742756;28;20434;-62
2023/04/22 19:05:30;;;;;;;10.85;7.85;;;6.90;99.90;;;;;;20740563;28;20063;-53
2023/04/22 19:15:32;;;;;;;9.70;7.25;;;6.90;99.90;;;;;;20741088;28;20037;-54
2023/04/22 19:25:35;;;;;;;12.73;7.80;;;6.90;99.90;;;;;;20742180;28;20029;-55
2023/04/22 19:35:37;;;;;;;13.65;8.85;;;7.10;99.90;;;;;;20741574;28;20038;-61
2023/04/22 19:45:39;;;;;;;17.00;9.82;;;7.30;99.90;;;;;;20739985;28;20041;-54
2023/04/22 19:55:42;;;;;;;14.85;9.48;;;7.30;99.90;;;;;;20739066;28;20060;-62
2023/04/22 20:05:45;;;;;;;18.20;11.68;;;7.10;99.90;;;;;;20736549;28;20032;-54
2023/04/22 20:15:46;;;;;;;30.50;17.70;;;7.10;99.90;;;;;;20737813;28;20045;-54
2023/04/22 20:25:49;;;;;;;35.00;21.92;;;7.10;99.90;;;;;;20737594;28;20111;-53
2023/04/22 20:35:52;;;;;;;37.42;22.27;;;7.30;99.90;;;;;;20736889;28;20044;-52
2023/04/22 20:45:54;;;;;;;44.05;24.48;;;7.40;99.90;;;;;;20735279;28;20033;-51
2023/04/22 20:55:55;;;;;;;39.55;23.75;;;7.40;99.90;;;;;;20736362;28;20041;-54
2023/04/22 21:05:58;;;;;;;40.05;24.00;;;7.60;99.90;;;;;;20735826;28;20030;-62
2023/04/22 21:16:07;;;;;;;38.58;24.08;;;7.60;99.90;;;;;;20749830;28;20041;-62
2023/04/22 21:26:09;;;;;;;34.45;22.23;;;7.90;99.90;;;;;;20734392;28;20041;-62
2023/04/22 21:36:11;;;;;;;39.17;23.48;;;7.70;99.90;;;;;;20749429;28;20034;-61
2023/04/22 21:46:13;;;;;;;40.03;23.73;;;7.50;99.90;;;;;;20749656;28;20029;-54
2023/04/22 21:56:14;;;;;;;40.25;24.02;;;7.20;99.90;;;;;;20748514;28;20388;-52
2023/04/22 22:06:16;;;;;;;41.83;24.25;;;7.20;99.90;;;;;;20749180;28;20037;-53
2023/04/22 22:16:18;;;;;;;39.55;23.83;;;7.20;99.90;;;;;;20747433;28;20038;-50
2023/04/22 22:26:20;;;;;;;35.45;22.73;;;7.30;99.90;;;;;;20746123;28;20475;-61
2023/04/22 22:36:22;;;;;;;38.50;22.35;;;7.40;99.90;;;;;;20745894;28;20100;-51
2023/04/22 22:46:24;;;;;;;44.95;25.70;;;7.70;99.90;;;;;;20744946;28;20122;-54
2023/04/22 22:56:25;;;;;;;36.63;22.25;;;7.90;99.90;;;;;;20744913;28;20033;-54
2023/04/22 23:06:27;;;;;;;47.03;27.00;;;7.60;99.90;;;;;;20743640;28;20034;-62
2023/04/22 23:16:28;;;;;;;46.20;26.42;;;7.60;99.90;;;;;;20743042;28;20464;-51
2023/04/22 23:26:30;;;;;;;60.63;33.78;;;7.60;99.90;;;;;;20742280;28;20049;-55
2023/04/22 23:36:36;;;;;;;48.88;30.17;;;7.60;99.90;;;;;;20741462;28;20068;-51
2023/04/22 23:46:37;;;;;;;54.75;31.33;;;7.50;99.90;;;;;;20740185;28;20038;-53
2023/04/22 23:56:40;;;;;;;39.75;24.80;;;7.20;99.90;;;;;;20740139;28;20034;-53
